sensor_id;sensor_type;location;lat;lon;timestamp;pressure;altitude;pressure_sealevel;temperature;humidity
19526;BME280;9907;42.676;26.348;2023-01-25T00:02:06;100420.91;;;2.16;69.66
19526;BME280;9907;42.676;26.348;2023-01-25T00:04:31;100417.63;;;2.09;69.68
19526;BME280;9907;42.676;26.348;2023-01-25T00:06:57;100426.50;;;2.07;69.89
19526;BME280;9907;42.676;26.348;2023-01-25T00:09:24;100422.38;;;1.98;69.89
19526;BME280;9907;42.676;26.348;2023-01-25T00:11:50;100421.78;;;1.90;70.10
19526;BME280;9907;42.676;26.348;2023-01-25T00:14:16;100418.75;;;2.02;70.46
19526;BME280;9907;42.676;26.348;2023-01-25T00:16:42;100416.16;;;2.01;69.81
19526;BME280;9907;42.676;26.348;2023-01-25T00:19:09;100414.63;;;1.93;69.76
19526;BME280;9907;42.676;26.348;2023-01-25T00:21:35;100412.59;;;2.02;69.31
19526;BME280;9907;42.676;26.348;2023-01-25T00:24:01;100420.72;;;1.95;69.63
19526;BME280;9907;42.676;26.348;2023-01-25T00:26:33;100426.59;;;1.77;69.68
19526;BME280;9907;42.676;26.348;2023-01-25T00:28:59;100428.81;;;1.89;70.29
19526;BME280;9907;42.676;26.348;2023-01-25T00:34:42;100422.78;;;1.86;69.47
19526;BME280;9907;42.676;26.348;2023-01-25T00:39:47;100417.25;;;1.93;68.90
19526;BME280;9907;42.676;26.348;2023-01-25T00:42:15;100410.22;;;1.94;69.24
19526;BME280;9907;42.676;26.348;2023-01-25T00:44:41;100410.69;;;1.80;69.23
19526;BME280;9907;42.676;26.348;2023-01-25T00:47:06;100414.25;;;1.78;69.29
19526;BME280;9907;42.676;26.348;2023-01-25T00:49:32;100404.69;;;1.75;69.08
19526;BME280;9907;42.676;26.348;2023-01-25T00:51:58;100395.75;;;1.81;68.83
19526;BME280;9907;42.676;26.348;2023-01-25T00:54:24;100399.72;;;1.92;68.46
19526;BME280;9907;42.676;26.348;2023-01-25T00:56:50;100403.16;;;1.68;69.10
19526;BME280;9907;42.676;26.348;2023-01-25T00:59:18;100414.47;;;1.72;68.86
19526;BME280;9907;42.676;26.348;2023-01-25T01:01:43;100407.63;;;1.92;68.75
19526;BME280;9907;42.676;26.348;2023-01-25T01:04:09;100418.22;;;1.65;69.27
19526;BME280;9907;42.676;26.348;2023-01-25T01:06:36;100410.34;;;1.63;69.09
19526;BME280;9907;42.676;26.348;2023-01-25T01:09:02;100405.56;;;1.76;69.04
19526;BME280;9907;42.676;26.348;2023-01-25T01:11:28;100405.19;;;1.60;69.22
19526;BME280;9907;42.676;26.348;2023-01-25T01:13:56;100398.97;;;1.89;68.38
19526;BME280;9907;42.676;26.348;2023-01-25T01:16:22;100398.16;;;1.87;68.29
19526;BME280;9907;42.676;26.348;2023-01-25T01:18:47;100401.91;;;1.80;68.14
19526;BME280;9907;42.676;26.348;2023-01-25T01:21:13;100395.88;;;1.76;68.41
19526;BME280;9907;42.676;26.348;2023-01-25T01:23:39;100389.03;;;1.71;68.24
19526;BME280;9907;42.676;26.348;2023-01-25T01:26:07;100395.28;;;1.67;68.32
19526;BME280;9907;42.676;26.348;2023-01-25T01:28:34;100394.25;;;1.72;68.68
19526;BME280;9907;42.676;26.348;2023-01-25T01:31:05;100379.09;;;1.79;68.32
19526;BME280;9907;42.676;26.348;2023-01-25T01:33:31;100384.81;;;1.65;68.30
19526;BME280;9907;42.676;26.348;2023-01-25T01:35:56;100384.69;;;1.70;68.72
19526;BME280;9907;42.676;26.348;2023-01-25T01:38:22;100377.94;;;1.87;67.94
19526;BME280;9907;42.676;26.348;2023-01-25T01:40:49;100383.09;;;1.90;68.24
19526;BME280;9907;42.676;26.348;2023-01-25T01:43:18;100386.66;;;1.89;68.21
19526;BME280;9907;42.676;26.348;2023-01-25T01:50:59;100368.53;;;1.80;68.84
19526;BME280;9907;42.676;26.348;2023-01-25T01:53:26;100374.81;;;1.76;68.73
19526;BME280;9907;42.676;26.348;2023-01-25T01:55:56;100366.28;;;1.68;69.01
19526;BME280;9907;42.676;26.348;2023-01-25T01:58:23;100371.91;;;1.84;68.87
19526;BME280;9907;42.676;26.348;2023-01-25T02:00:49;100366.66;;;1.84;69.26
19526;BME280;9907;42.676;26.348;2023-01-25T02:03:15;100376.53;;;1.77;70.22
19526;BME280;9907;42.676;26.348;2023-01-25T02:08:31;100368.13;;;1.66;70.05
19526;BME280;9907;42.676;26.348;2023-01-25T02:10:58;100376.59;;;1.74;70.38
19526;BME280;9907;42.676;26.348;2023-01-25T02:13:25;100362.50;;;1.77;69.84
19526;BME280;9907;42.676;26.348;2023-01-25T02:15:52;100376.59;;;1.74;70.04
19526;BME280;9907;42.676;26.348;2023-01-25T02:18:18;100373.28;;;1.69;71.29
19526;BME280;9907;42.676;26.348;2023-01-25T02:20:46;100374.81;;;1.76;70.10
19526;BME280;9907;42.676;26.348;2023-01-25T02:26:04;100368.97;;;1.93;69.82
19526;BME280;9907;42.676;26.348;2023-01-25T02:28:44;100371.59;;;1.93;69.86
19526;BME280;9907;42.676;26.348;2023-01-25T02:31:11;100370.94;;;1.86;69.70
19526;BME280;9907;42.676;26.348;2023-01-25T02:33:37;100373.63;;;1.85;69.89
19526;BME280;9907;42.676;26.348;2023-01-25T02:38:33;100374.59;;;1.82;70.08
19526;BME280;9907;42.676;26.348;2023-01-25T02:41:07;100366.66;;;1.84;69.41
19526;BME280;9907;42.676;26.348;2023-01-25T02:43:34;100369.22;;;1.85;69.20
19526;BME280;9907;42.676;26.348;2023-01-25T02:46:10;100362.25;;;1.84;69.56
19526;BME280;9907;42.676;26.348;2023-01-25T02:48:38;100370.91;;;1.62;68.16
19526;BME280;9907;42.676;26.348;2023-01-25T02:51:06;100369.19;;;1.59;68.01
19526;BME280;9907;42.676;26.348;2023-01-25T02:53:31;100366.38;;;1.65;67.62
19526;BME280;9907;42.676;26.348;2023-01-25T02:55:57;100366.91;;;1.76;67.58
19526;BME280;9907;42.676;26.348;2023-01-25T02:58:22;100373.06;;;1.75;67.52
19526;BME280;9907;42.676;26.348;2023-01-25T03:00:48;100371.56;;;1.68;67.25
19526;BME280;9907;42.676;26.348;2023-01-25T03:03:13;100376.94;;;1.65;67.33
19526;BME280;9907;42.676;26.348;2023-01-25T03:05:38;100366.56;;;1.59;66.77
19526;BME280;9907;42.676;26.348;2023-01-25T03:08:04;100373.28;;;1.69;67.14
19526;BME280;9907;42.676;26.348;2023-01-25T03:10:29;100371.78;;;1.61;67.23
19526;BME280;9907;42.676;26.348;2023-01-25T03:12:55;100373.97;;;1.74;67.15
19526;BME280;9907;42.676;26.348;2023-01-25T03:15:20;100376.59;;;1.74;66.78
19526;BME280;9907;42.676;26.348;2023-01-25T03:17:46;100370.41;;;1.77;67.17
19526;BME280;9907;42.676;26.348;2023-01-25T03:20:11;100380.06;;;1.76;66.61
19526;BME280;9907;42.676;26.348;2023-01-25T03:22:37;100375.34;;;1.86;67.84
19526;BME280;9907;42.676;26.348;2023-01-25T03:25:02;100374.97;;;1.70;68.40
19526;BME280;9907;42.676;26.348;2023-01-25T03:27:29;100377.78;;;1.66;69.39
19526;BME280;9907;42.676;26.348;2023-01-25T03:29:55;100379.50;;;1.67;68.56
19526;BME280;9907;42.676;26.348;2023-01-25T03:32:20;100377.69;;;1.69;69.11
19526;BME280;9907;42.676;26.348;2023-01-25T03:34:46;100371.75;;;1.62;68.50
19526;BME280;9907;42.676;26.348;2023-01-25T03:37:11;100379.66;;;1.62;68.14
19526;BME280;9907;42.676;26.348;2023-01-25T03:39:37;100371.66;;;1.65;69.07
19526;BME280;9907;42.676;26.348;2023-01-25T03:42:02;100376.72;;;1.71;68.13
19526;BME280;9907;42.676;26.348;2023-01-25T03:44:28;100373.06;;;1.75;68.09
19526;BME280;9907;42.676;26.348;2023-01-25T03:46:53;100366.84;;;1.78;67.88
19526;BME280;9907;42.676;26.348;2023-01-25T03:49:19;100367.81;;;1.75;68.42
19526;BME280;9907;42.676;26.348;2023-01-25T03:51:44;100381.81;;;1.77;68.37
19526;BME280;9907;42.676;26.348;2023-01-25T03:54:10;100368.78;;;1.73;67.79
19526;BME280;9907;42.676;26.348;2023-01-25T03:56:36;100366.91;;;1.48;67.82
19526;BME280;9907;42.676;26.348;2023-01-25T03:59:02;100378.84;;;1.60;68.52
19526;BME280;9907;42.676;26.348;2023-01-25T04:01:28;100361.88;;;1.69;68.65
19526;BME280;9907;42.676;26.348;2023-01-25T04:03:53;100365.41;;;1.68;68.72
19526;BME280;9907;42.676;26.348;2023-01-25T04:06:19;100366.06;;;1.74;68.46
19526;BME280;9907;42.676;26.348;2023-01-25T04:08:44;100370.34;;;1.78;67.93
19526;BME280;9907;42.676;26.348;2023-01-25T04:11:10;100366.31;;;1.67;68.58
19526;BME280;9907;42.676;26.348;2023-01-25T04:13:36;100368.13;;;1.66;68.97
19526;BME280;9907;42.676;26.348;2023-01-25T04:16:03;100358.34;;;1.70;68.55
19526;BME280;9907;42.676;26.348;2023-01-25T04:18:29;100363.41;;;1.76;68.82
19526;BME280;9907;42.676;26.348;2023-01-25T04:20:55;100361.13;;;1.65;68.83
19526;BME280;9907;42.676;26.348;2023-01-25T04:23:22;100360.28;;;1.63;69.05
19526;BME280;9907;42.676;26.348;2023-01-25T04:25:53;100356.09;;;1.58;68.58
19526;BME280;9907;42.676;26.348;2023-01-25T04:28:18;100351.81;;;1.55;69.09
19526;BME280;9907;42.676;26.348;2023-01-25T04:30:44;100355.19;;;1.59;69.20
19526;BME280;9907;42.676;26.348;2023-01-25T04:33:09;100353.50;;;1.56;69.93
19526;BME280;9907;42.676;26.348;2023-01-25T04:35:36;100362.47;;;1.51;69.97
19526;BME280;9907;42.676;26.348;2023-01-25T04:38:02;100356.34;;;1.50;69.96
19526;BME280;9907;42.676;26.348;2023-01-25T04:40:28;100358.06;;;1.51;70.13
19526;BME280;9907;42.676;26.348;2023-01-25T04:42:54;100358.97;;;1.50;69.89
19526;BME280;9907;42.676;26.348;2023-01-25T04:45:19;100351.97;;;1.49;70.51
19526;BME280;9907;42.676;26.348;2023-01-25T04:47:45;100356.13;;;1.56;71.09
19526;BME280;9907;42.676;26.348;2023-01-25T04:50:10;100350.84;;;1.58;71.73
19526;BME280;9907;42.676;26.348;2023-01-25T04:52:36;100353.56;;;1.55;71.71
19526;BME280;9907;42.676;26.348;2023-01-25T04:55:01;100354.72;;;1.46;71.21
19526;BME280;9907;42.676;26.348;2023-01-25T04:57:27;100352.69;;;1.54;72.11
19526;BME280;9907;42.676;26.348;2023-01-25T04:59:52;100350.00;;;1.56;72.06
19526;BME280;9907;42.676;26.348;2023-01-25T05:02:18;100355.13;;;1.60;72.42
19526;BME280;9907;42.676;26.348;2023-01-25T05:04:43;100353.47;;;1.58;72.04
19526;BME280;9907;42.676;26.348;2023-01-25T05:07:09;100355.22;;;1.57;71.13
19526;BME280;9907;42.676;26.348;2023-01-25T05:09:34;100349.97;;;1.57;71.71
19526;BME280;9907;42.676;26.348;2023-01-25T05:12:00;100350.75;;;1.59;72.57
19526;BME280;9907;42.676;26.348;2023-01-25T05:14:25;100356.72;;;1.66;71.57
19526;BME280;9907;42.676;26.348;2023-01-25T05:16:50;100356.00;;;1.61;70.71
19526;BME280;9907;42.676;26.348;2023-01-25T05:19:16;100355.63;;;1.71;69.57
19526;BME280;9907;42.676;26.348;2023-01-25T05:21:41;100355.47;;;1.77;69.58
19526;BME280;9907;42.676;26.348;2023-01-25T05:24:27;100349.75;;;1.63;69.84
19526;BME280;9907;42.676;26.348;2023-01-25T05:26:53;100352.00;;;1.75;69.39
19526;BME280;9907;42.676;26.348;2023-01-25T05:31:53;100337.41;;;1.65;68.81
19526;BME280;9907;42.676;26.348;2023-01-25T05:34:19;100344.19;;;1.72;67.75
19526;BME280;9907;42.676;26.348;2023-01-25T05:36:44;100345.41;;;1.62;67.73
19526;BME280;9907;42.676;26.348;2023-01-25T05:39:10;100347.63;;;1.74;67.88
19526;BME280;9907;42.676;26.348;2023-01-25T05:41:35;100350.47;;;1.68;68.67
19526;BME280;9907;42.676;26.348;2023-01-25T05:44:01;100348.75;;;1.67;68.37
19526;BME280;9907;42.676;26.348;2023-01-25T05:46:27;100348.31;;;1.81;67.82
19526;BME280;9907;42.676;26.348;2023-01-25T05:48:53;100343.44;;;1.69;68.89
19526;BME280;9907;42.676;26.348;2023-01-25T05:51:18;100346.06;;;1.69;69.45
19526;BME280;9907;42.676;26.348;2023-01-25T05:53:44;100345.22;;;1.68;68.25
19526;BME280;9907;42.676;26.348;2023-01-25T05:56:09;100349.50;;;1.71;69.21
19526;BME280;9907;42.676;26.348;2023-01-25T05:58:35;100352.38;;;1.63;69.42
19526;BME280;9907;42.676;26.348;2023-01-25T06:01:02;100359.38;;;1.64;68.41
19526;BME280;9907;42.676;26.348;2023-01-25T06:03:28;100362.03;;;1.64;68.06
19526;BME280;9907;42.676;26.348;2023-01-25T06:05:58;100353.47;;;1.58;68.69
19526;BME280;9907;42.676;26.348;2023-01-25T06:08:26;100345.50;;;1.59;68.65
19526;BME280;9907;42.676;26.348;2023-01-25T06:10:52;100353.41;;;1.59;69.87
19526;BME280;9907;42.676;26.348;2023-01-25T06:13:18;100352.63;;;1.56;69.26
19526;BME280;9907;42.676;26.348;2023-01-25T06:18:18;100358.88;;;1.53;69.10
19526;BME280;9907;42.676;26.348;2023-01-25T06:20:43;100360.28;;;1.63;69.65
19526;BME280;9907;42.676;26.348;2023-01-25T06:23:09;100346.31;;;1.61;69.34
19526;BME280;9907;42.676;26.348;2023-01-25T06:25:34;100363.63;;;1.70;67.87
19526;BME280;9907;42.676;26.348;2023-01-25T06:28:00;100358.41;;;1.67;66.80
19526;BME280;9907;42.676;26.348;2023-01-25T06:30:25;100356.72;;;1.66;67.26
19526;BME280;9907;42.676;26.348;2023-01-25T06:32:50;100354.94;;;1.66;67.00
19526;BME280;9907;42.676;26.348;2023-01-25T06:35:16;100356.22;;;1.81;66.39
19526;BME280;9907;42.676;26.348;2023-01-25T06:37:42;100363.41;;;1.76;66.79
19526;BME280;9907;42.676;26.348;2023-01-25T06:40:08;100355.63;;;1.71;67.06
19526;BME280;9907;42.676;26.348;2023-01-25T06:42:33;100364.31;;;1.75;67.06
19526;BME280;9907;42.676;26.348;2023-01-25T06:44:59;100367.16;;;1.69;66.93
19526;BME280;9907;42.676;26.348;2023-01-25T06:47:24;100376.06;;;1.65;67.53
19526;BME280;9907;42.676;26.348;2023-01-25T06:49:49;100377.69;;;1.69;67.78
19526;BME280;9907;42.676;26.348;2023-01-25T06:52:15;100376.81;;;1.68;68.48
19526;BME280;9907;42.676;26.348;2023-01-25T06:54:40;100376.19;;;1.60;68.81
19526;BME280;9907;42.676;26.348;2023-01-25T06:57:06;100377.69;;;1.41;68.94
19526;BME280;9907;42.676;26.348;2023-01-25T06:59:34;100378.44;;;1.44;68.63
19526;BME280;9907;42.676;26.348;2023-01-25T07:02:00;100377.16;;;1.58;69.21
19526;BME280;9907;42.676;26.348;2023-01-25T07:04:25;100388.84;;;1.49;68.85
19526;BME280;9907;42.676;26.348;2023-01-25T07:06:51;100396.41;;;1.60;69.23
19526;BME280;9907;42.676;26.348;2023-01-25T07:09:16;100396.94;;;1.71;69.06
19526;BME280;9907;42.676;26.348;2023-01-25T07:11:48;100391.31;;;1.81;67.82
19526;BME280;9907;42.676;26.348;2023-01-25T07:14:13;100386.63;;;1.91;67.71
19526;BME280;9907;42.676;26.348;2023-01-25T07:16:39;100387.66;;;1.85;67.33
19526;BME280;9907;42.676;26.348;2023-01-25T07:19:05;100390.63;;;1.76;66.65
19526;BME280;9907;42.676;26.348;2023-01-25T07:21:31;100388.88;;;1.75;66.92
19526;BME280;9907;42.676;26.348;2023-01-25T07:24:01;100388.66;;;1.81;66.72
19526;BME280;9907;42.676;26.348;2023-01-25T07:26:27;100394.03;;;2.05;66.76
19526;BME280;9907;42.676;26.348;2023-01-25T07:28:53;100396.81;;;2.00;66.73
19526;BME280;9907;42.676;26.348;2023-01-25T07:31:20;100395.72;;;2.07;67.49
19526;BME280;9907;42.676;26.348;2023-01-25T07:33:56;100392.81;;;2.15;65.64
19526;BME280;9907;42.676;26.348;2023-01-25T07:36:23;100393.53;;;2.20;66.15
19526;BME280;9907;42.676;26.348;2023-01-25T07:38:55;100395.66;;;2.09;65.18
19526;BME280;9907;42.676;26.348;2023-01-25T07:41:21;100390.41;;;2.09;64.96
19526;BME280;9907;42.676;26.348;2023-01-25T07:43:46;100389.16;;;2.19;64.73
19526;BME280;9907;42.676;26.348;2023-01-25T07:46:13;100381.38;;;2.16;64.64
19526;BME280;9907;42.676;26.348;2023-01-25T07:48:40;100387.22;;;1.99;64.20
19526;BME280;9907;42.676;26.348;2023-01-25T07:51:09;100383.75;;;1.97;64.09
19526;BME280;9907;42.676;26.348;2023-01-25T07:54:03;100377.31;;;2.06;63.85
19526;BME280;9907;42.676;26.348;2023-01-25T07:56:33;100382.72;;;2.03;63.91
19526;BME280;9907;42.676;26.348;2023-01-25T07:59:01;100376.31;;;2.10;64.56
19526;BME280;9907;42.676;26.348;2023-01-25T08:01:32;100372.84;;;2.08;65.28
19526;BME280;9907;42.676;26.348;2023-01-25T08:03:58;100374.53;;;2.10;64.17
19526;BME280;9907;42.676;26.348;2023-01-25T08:06:27;100374.28;;;2.18;64.23
19526;BME280;9907;42.676;26.348;2023-01-25T08:08:56;100377.44;;;2.03;64.06
19526;BME280;9907;42.676;26.348;2023-01-25T08:11:24;100381.59;;;2.10;64.37
19526;BME280;9907;42.676;26.348;2023-01-25T08:13:50;100383.13;;;2.15;65.28
19526;BME280;9907;42.676;26.348;2023-01-25T08:16:17;100384.59;;;2.24;64.48
19526;BME280;9907;42.676;26.348;2023-01-25T08:18:46;100387.88;;;2.30;63.63
19526;BME280;9907;42.676;26.348;2023-01-25T08:21:11;100383.78;;;2.22;63.83
19526;BME280;9907;42.676;26.348;2023-01-25T08:23:37;100398.41;;;2.06;63.66
19526;BME280;9907;42.676;26.348;2023-01-25T08:26:07;100388.47;;;2.14;64.44
19526;BME280;9907;42.676;26.348;2023-01-25T08:28:33;100388.66;;;2.08;63.95
19526;BME280;9907;42.676;26.348;2023-01-25T08:31:13;100397.50;;;2.07;64.08
19526;BME280;9907;42.676;26.348;2023-01-25T08:33:39;100389.50;;;2.10;64.55
19526;BME280;9907;42.676;26.348;2023-01-25T08:36:05;100380.34;;;2.20;64.45
19526;BME280;9907;42.676;26.348;2023-01-25T08:38:33;100382.88;;;2.23;63.60
19526;BME280;9907;42.676;26.348;2023-01-25T08:41:12;100381.00;;;2.26;63.65
19526;BME280;9907;42.676;26.348;2023-01-25T08:43:39;100386.34;;;2.25;63.39
19526;BME280;9907;42.676;26.348;2023-01-25T08:46:05;100381.84;;;2.27;64.01
19526;BME280;9907;42.676;26.348;2023-01-25T08:48:30;100375.41;;;2.35;63.58
19526;BME280;9907;42.676;26.348;2023-01-25T08:50:56;100382.63;;;2.30;62.94
19526;BME280;9907;42.676;26.348;2023-01-25T08:53:22;100377.16;;;2.36;63.94
19526;BME280;9907;42.676;26.348;2023-01-25T08:55:47;100376.06;;;2.42;63.55
19526;BME280;9907;42.676;26.348;2023-01-25T08:58:14;100377.03;;;2.39;62.57
19526;BME280;9907;42.676;26.348;2023-01-25T09:00:41;100383.00;;;2.69;63.11
19526;BME280;9907;42.676;26.348;2023-01-25T09:03:07;100380.44;;;2.66;63.60
19526;BME280;9907;42.676;26.348;2023-01-25T09:05:34;100379.75;;;2.61;63.58
19526;BME280;9907;42.676;26.348;2023-01-25T09:08:00;100378.84;;;2.62;62.70
19526;BME280;9907;42.676;26.348;2023-01-25T09:10:26;100375.06;;;2.69;62.15
19526;BME280;9907;42.676;26.348;2023-01-25T09:12:51;100377.25;;;2.81;62.62
19526;BME280;9907;42.676;26.348;2023-01-25T09:15:17;100373.28;;;2.93;63.18
19526;BME280;9907;42.676;26.348;2023-01-25T09:17:42;100362.56;;;2.98;62.72
19526;BME280;9907;42.676;26.348;2023-01-25T09:20:08;100364.97;;;3.04;61.55
19526;BME280;9907;42.676;26.348;2023-01-25T09:22:34;100355.59;;;3.18;61.60
19526;BME280;9907;42.676;26.348;2023-01-25T09:25:00;100360.69;;;3.23;61.72
19526;BME280;9907;42.676;26.348;2023-01-25T09:27:26;100351.00;;;3.23;61.75
19526;BME280;9907;42.676;26.348;2023-01-25T09:29:51;100349.06;;;3.28;61.31
19526;BME280;9907;42.676;26.348;2023-01-25T09:32:16;100339.84;;;3.38;60.51
19526;BME280;9907;42.676;26.348;2023-01-25T09:34:42;100340.09;;;3.32;61.63
19526;BME280;9907;42.676;26.348;2023-01-25T09:37:07;100337.53;;;3.08;60.44
19526;BME280;9907;42.676;26.348;2023-01-25T09:39:33;100336.63;;;3.30;60.69
19526;BME280;9907;42.676;26.348;2023-01-25T09:50:21;100320.31;;;3.21;60.82
19526;BME280;9907;42.676;26.348;2023-01-25T09:55:55;100314.16;;;3.20;60.31
19526;BME280;9907;42.676;26.348;2023-01-25T09:58:28;100307.69;;;3.06;60.77
19526;BME280;9907;42.676;26.348;2023-01-25T10:01:10;100300.88;;;3.22;60.78
19526;BME280;9907;42.676;26.348;2023-01-25T10:03:47;100289.50;;;3.41;61.91
19526;BME280;9907;42.676;26.348;2023-01-25T10:06:17;100281.09;;;3.54;61.51
19526;BME280;9907;42.676;26.348;2023-01-25T10:09:04;100279.00;;;3.40;60.98
19526;BME280;9907;42.676;26.348;2023-01-25T10:11:36;100275.09;;;3.50;60.52
19526;BME280;9907;42.676;26.348;2023-01-25T10:14:11;100268.44;;;3.40;60.67
19526;BME280;9907;42.676;26.348;2023-01-25T10:16:49;100260.88;;;3.53;60.67
19526;BME280;9907;42.676;26.348;2023-01-25T10:29:59;100236.00;;;3.58;61.01
19526;BME280;9907;42.676;26.348;2023-01-25T10:32:30;100234.63;;;3.48;60.64
19526;BME280;9907;42.676;26.348;2023-01-25T10:35:00;100223.25;;;3.68;61.26
19526;BME280;9907;42.676;26.348;2023-01-25T10:37:34;100225.81;;;3.49;60.94
19526;BME280;9907;42.676;26.348;2023-01-25T10:42:59;100214.19;;;3.53;60.84
19526;BME280;9907;42.676;26.348;2023-01-25T10:45:26;100209.63;;;3.57;61.17
19526;BME280;9907;42.676;26.348;2023-01-25T10:47:58;100211.81;;;3.47;61.78
19526;BME280;9907;42.676;26.348;2023-01-25T10:58:39;100186.84;;;3.54;63.89
19526;BME280;9907;42.676;26.348;2023-01-25T11:01:07;100185.56;;;3.63;64.52
19526;BME280;9907;42.676;26.348;2023-01-25T11:03:42;100184.78;;;3.40;63.04
19526;BME280;9907;42.676;26.348;2023-01-25T11:06:10;100184.06;;;3.57;63.47
19526;BME280;9907;42.676;26.348;2023-01-25T11:08:40;100178.84;;;3.56;63.57
19526;BME280;9907;42.676;26.348;2023-01-25T11:11:35;100175.41;;;3.54;64.07
19526;BME280;9907;42.676;26.348;2023-01-25T11:14:02;100170.91;;;3.56;63.42
19526;BME280;9907;42.676;26.348;2023-01-25T11:16:39;100168.78;;;3.84;62.85
19526;BME280;9907;42.676;26.348;2023-01-25T11:19:31;100160.59;;;3.90;62.40
19526;BME280;9907;42.676;26.348;2023-01-25T11:21:59;100151.88;;;3.68;61.93
19526;BME280;9907;42.676;26.348;2023-01-25T11:24:34;100145.59;;;3.70;62.46
19526;BME280;9907;42.676;26.348;2023-01-25T11:29:38;100144.19;;;3.82;62.15
19526;BME280;9907;42.676;26.348;2023-01-25T11:32:18;100140.69;;;3.81;62.81
19526;BME280;9907;42.676;26.348;2023-01-25T11:34:47;100137.47;;;3.75;62.73
19526;BME280;9907;42.676;26.348;2023-01-25T11:37:27;100137.91;;;3.84;62.87
19526;BME280;9907;42.676;26.348;2023-01-25T11:43:02;100126.22;;;3.90;63.27
19526;BME280;9907;42.676;26.348;2023-01-25T11:53:58;100124.47;;;3.70;64.56
19526;BME280;9907;42.676;26.348;2023-01-25T11:59:29;100127.63;;;3.78;64.49
19526;BME280;9907;42.676;26.348;2023-01-25T12:02:24;100129.59;;;3.93;63.34
19526;BME280;9907;42.676;26.348;2023-01-25T12:18:24;100139.78;;;3.82;64.68
19526;BME280;9907;42.676;26.348;2023-01-25T12:21:02;100130.22;;;3.80;64.49
19526;BME280;9907;42.676;26.348;2023-01-25T12:26:28;100121.84;;;3.50;65.59
19526;BME280;9907;42.676;26.348;2023-01-25T12:29:04;100122.75;;;3.69;65.26
19526;BME280;9907;42.676;26.348;2023-01-25T12:32:02;100124.25;;;3.75;65.51
19526;BME280;9907;42.676;26.348;2023-01-25T12:34:34;100128.88;;;3.70;65.23
19526;BME280;9907;42.676;26.348;2023-01-25T12:37:25;100115.47;;;3.74;65.18
19526;BME280;9907;42.676;26.348;2023-01-25T12:40:00;100118.56;;;3.84;65.58
19526;BME280;9907;42.676;26.348;2023-01-25T12:42:28;100118.50;;;3.85;65.74
19526;BME280;9907;42.676;26.348;2023-01-25T12:45:05;100114.88;;;3.88;65.60
19526;BME280;9907;42.676;26.348;2023-01-25T12:47:51;100109.94;;;3.80;66.63
19526;BME280;9907;42.676;26.348;2023-01-25T12:50:43;100110.47;;;3.68;66.64
19526;BME280;9907;42.676;26.348;2023-01-25T12:53:31;100115.91;;;3.65;66.59
19526;BME280;9907;42.676;26.348;2023-01-25T12:55:58;100108.09;;;3.62;66.41
19526;BME280;9907;42.676;26.348;2023-01-25T12:58:37;100102.50;;;3.50;66.45
19526;BME280;9907;42.676;26.348;2023-01-25T13:01:34;100094.88;;;3.62;67.24
19526;BME280;9907;42.676;26.348;2023-01-25T13:09:34;100113.69;;;3.36;66.61
19526;BME280;9907;42.676;26.348;2023-01-25T13:12:04;100104.94;;;3.34;66.94
19526;BME280;9907;42.676;26.348;2023-01-25T13:14:37;100107.13;;;3.44;67.08
19526;BME280;9907;42.676;26.348;2023-01-25T13:19:45;100107.84;;;3.48;66.49
19526;BME280;9907;42.676;26.348;2023-01-25T13:22:11;100096.28;;;3.51;66.92
19526;BME280;9907;42.676;26.348;2023-01-25T13:27:41;100098.94;;;3.51;67.52
19526;BME280;9907;42.676;26.348;2023-01-25T13:30:32;100089.69;;;3.40;67.42
19526;BME280;9907;42.676;26.348;2023-01-25T13:33:05;100079.97;;;3.41;67.77
19526;BME280;9907;42.676;26.348;2023-01-25T13:40:35;100071.19;;;3.40;67.75
19526;BME280;9907;42.676;26.348;2023-01-25T13:43:05;100062.94;;;3.48;67.47
19526;BME280;9907;42.676;26.348;2023-01-25T13:45:40;100062.09;;;3.27;68.03
19526;BME280;9907;42.676;26.348;2023-01-25T13:48:17;100059.13;;;3.35;68.14
19526;BME280;9907;42.676;26.348;2023-01-25T13:50:52;100052.38;;;3.48;68.46
19526;BME280;9907;42.676;26.348;2023-01-25T13:53:23;100058.31;;;3.53;67.64
19526;BME280;9907;42.676;26.348;2023-01-25T13:55:55;100058.53;;;3.28;68.10
19526;BME280;9907;42.676;26.348;2023-01-25T13:58:24;100055.84;;;3.10;69.26
19526;BME280;9907;42.676;26.348;2023-01-25T14:00:56;100056.75;;;3.09;69.19
19526;BME280;9907;42.676;26.348;2023-01-25T14:03:28;100054.50;;;3.20;68.90
19526;BME280;9907;42.676;26.348;2023-01-25T14:05:56;100061.66;;;3.18;69.00
19526;BME280;9907;42.676;26.348;2023-01-25T14:08:23;100056.09;;;3.04;69.32
19526;BME280;9907;42.676;26.348;2023-01-25T14:10:50;100067.91;;;3.15;69.26
19526;BME280;9907;42.676;26.348;2023-01-25T14:13:17;100056.91;;;3.06;69.38
19526;BME280;9907;42.676;26.348;2023-01-25T14:15:57;100056.38;;;2.98;70.11
19526;BME280;9907;42.676;26.348;2023-01-25T14:18:30;100052.41;;;2.87;70.22
19526;BME280;9907;42.676;26.348;2023-01-25T14:21:17;100048.19;;;2.83;70.56
19526;BME280;9907;42.676;26.348;2023-01-25T14:23:43;100052.91;;;2.75;70.70
19526;BME280;9907;42.676;26.348;2023-01-25T14:26:24;100054.63;;;2.76;71.05
19526;BME280;9907;42.676;26.348;2023-01-25T14:28:52;100041.00;;;2.87;70.97
19526;BME280;9907;42.676;26.348;2023-01-25T14:31:23;100043.69;;;2.85;70.65
19526;BME280;9907;42.676;26.348;2023-01-25T14:33:51;100047.53;;;2.99;69.94
19526;BME280;9907;42.676;26.348;2023-01-25T14:36:27;100067.38;;;2.87;70.86
19526;BME280;9907;42.676;26.348;2023-01-25T14:38:53;100053.28;;;2.88;71.08
19526;BME280;9907;42.676;26.348;2023-01-25T14:41:33;100051.47;;;2.88;71.25
19526;BME280;9907;42.676;26.348;2023-01-25T14:44:02;100058.72;;;2.83;71.31
19526;BME280;9907;42.676;26.348;2023-01-25T14:46:33;100068.38;;;2.84;71.30
19526;BME280;9907;42.676;26.348;2023-01-25T14:54:22;100062.97;;;2.87;72.04
19526;BME280;9907;42.676;26.348;2023-01-25T14:59:55;100054.41;;;3.03;71.59
19526;BME280;9907;42.676;26.348;2023-01-25T15:02:31;100051.09;;;2.98;71.59
19526;BME280;9907;42.676;26.348;2023-01-25T15:05:19;100055.03;;;2.87;71.69